sensor_id;sensor_type;location;lat;lon;timestamp;P1;durP1;ratioP1;P2;durP2;ratioP2
297;SDS011;133;49.626;9.680;2022-11-23T00:02:25;5.47;;;2.67;;
297;SDS011;133;49.626;9.680;2022-11-23T00:04:53;9.40;;;5.70;;
297;SDS011;133;49.626;9.680;2022-11-23T00:07:19;6.00;;;4.63;;
297;SDS011;133;49.626;9.680;2022-11-23T00:09:44;4.77;;;3.40;;
297;SDS011;133;49.626;9.680;2022-11-23T00:12:10;3.27;;;3.07;;
297;SDS011;133;49.626;9.680;2022-11-23T00:14:36;4.57;;;3.60;;
297;SDS011;133;49.626;9.680;2022-11-23T00:17:01;10.70;;;8.10;;
297;SDS011;133;49.626;9.680;2022-11-23T00:19:27;9.77;;;8.33;;
297;SDS011;133;49.626;9.680;2022-11-23T00:21:53;5.93;;;4.77;;
297;SDS011;133;49.626;9.680;2022-11-23T00:24:18;4.73;;;3.30;;
297;SDS011;133;49.626;9.680;2022-11-23T00:26:44;5.77;;;3.50;;
297;SDS011;133;49.626;9.680;2022-11-23T00:29:10;3.53;;;3.30;;
297;SDS011;133;49.626;9.680;2022-11-23T00:31:35;3.33;;;3.13;;
297;SDS011;133;49.626;9.680;2022-11-23T00:34:01;4.90;;;3.27;;
297;SDS011;133;49.626;9.680;2022-11-23T00:36:27;7.50;;;3.60;;
297;SDS011;133;49.626;9.680;2022-11-23T00:38:52;3.17;;;2.97;;
297;SDS011;133;49.626;9.680;2022-11-23T00:41:22;3.10;;;2.90;;
297;SDS011;133;49.626;9.680;2022-11-23T00:43:49;3.03;;;2.80;;
297;SDS011;133;49.626;9.680;2022-11-23T00:46:23;4.07;;;2.93;;
297;SDS011;133;49.626;9.680;2022-11-23T00:48:52;3.10;;;2.70;;
297;SDS011;133;49.626;9.680;2022-11-23T00:51:21;3.07;;;2.90;;
297;SDS011;133;49.626;9.680;2022-11-23T00:53:49;3.10;;;2.83;;
297;SDS011;133;49.626;9.680;2022-11-23T00:56:15;3.23;;;2.77;;
297;SDS011;133;49.626;9.680;2022-11-23T00:58:42;4.10;;;3.13;;
297;SDS011;133;49.626;9.680;2022-11-23T01:01:15;3.67;;;2.47;;
297;SDS011;133;49.626;9.680;2022-11-23T01:03:43;5.70;;;2.47;;
297;SDS011;133;49.626;9.680;2022-11-23T01:06:20;3.80;;;2.67;;
297;SDS011;133;49.626;9.680;2022-11-23T01:08:48;3.10;;;2.87;;
297;SDS011;133;49.626;9.680;2022-11-23T01:11:25;4.10;;;2.70;;
297;SDS011;133;49.626;9.680;2022-11-23T01:13:52;3.30;;;2.50;;
297;SDS011;133;49.626;9.680;2022-11-23T01:18:45;3.30;;;2.30;;
297;SDS011;133;49.626;9.680;2022-11-23T01:21:11;2.93;;;2.60;;
297;SDS011;133;49.626;9.680;2022-11-23T01:23:37;4.80;;;2.80;;
297;SDS011;133;49.626;9.680;2022-11-23T01:26:03;8.60;;;2.80;;
297;SDS011;133;49.626;9.680;2022-11-23T01:28:30;5.43;;;2.70;;
297;SDS011;133;49.626;9.680;2022-11-23T01:31:01;2.97;;;2.60;;
297;SDS011;133;49.626;9.680;2022-11-23T01:33:31;3.07;;;2.87;;
297;SDS011;133;49.626;9.680;2022-11-23T01:35:57;4.70;;;3.00;;
297;SDS011;133;49.626;9.680;2022-11-23T01:38:22;5.77;;;2.80;;
297;SDS011;133;49.626;9.680;2022-11-23T01:40:48;2.63;;;2.43;;
297;SDS011;133;49.626;9.680;2022-11-23T01:43:14;5.70;;;2.80;;
297;SDS011;133;49.626;9.680;2022-11-23T01:46:02;3.53;;;2.60;;
297;SDS011;133;49.626;9.680;2022-11-23T01:49:10;2.90;;;2.70;;
297;SDS011;133;49.626;9.680;2022-11-23T01:51:17;2.63;;;2.43;;
297;SDS011;133;49.626;9.680;2022-11-23T01:53:47;3.00;;;2.70;;
297;SDS011;133;49.626;9.680;2022-11-23T01:56:16;5.10;;;3.00;;
297;SDS011;133;49.626;9.680;2022-11-23T01:58:46;4.90;;;3.10;;
297;SDS011;133;49.626;9.680;2022-11-23T02:01:16;3.20;;;2.47;;
297;SDS011;133;49.626;9.680;2022-11-23T02:03:42;7.37;;;2.73;;
297;SDS011;133;49.626;9.680;2022-11-23T02:06:18;4.27;;;2.70;;
297;SDS011;133;49.626;9.680;2022-11-23T02:08:46;2.47;;;2.30;;
297;SDS011;133;49.626;9.680;2022-11-23T02:11:13;2.43;;;2.23;;
297;SDS011;133;49.626;9.680;2022-11-23T02:13:41;4.20;;;2.97;;
297;SDS011;133;49.626;9.680;2022-11-23T02:16:09;3.73;;;2.40;;
297;SDS011;133;49.626;9.680;2022-11-23T02:18:38;3.93;;;2.60;;
297;SDS011;133;49.626;9.680;2022-11-23T02:21:08;2.63;;;2.37;;
297;SDS011;133;49.626;9.680;2022-11-23T02:26:20;6.00;;;2.60;;
297;SDS011;133;49.626;9.680;2022-11-23T02:28:51;3.63;;;2.60;;
297;SDS011;133;49.626;9.680;2022-11-23T02:31:22;4.70;;;2.70;;
297;SDS011;133;49.626;9.680;2022-11-23T02:33:48;6.87;;;3.00;;
297;SDS011;133;49.626;9.680;2022-11-23T02:36:27;2.70;;;2.43;;
297;SDS011;133;49.626;9.680;2022-11-23T02:42:05;4.40;;;2.53;;
297;SDS011;133;49.626;9.680;2022-11-23T02:47:27;2.83;;;2.70;;
297;SDS011;133;49.626;9.680;2022-11-23T02:49:53;2.77;;;2.17;;
297;SDS011;133;49.626;9.680;2022-11-23T02:52:18;3.63;;;2.40;;
297;SDS011;133;49.626;9.680;2022-11-23T02:54:44;3.10;;;2.67;;
297;SDS011;133;49.626;9.680;2022-11-23T02:57:10;4.00;;;2.93;;
297;SDS011;133;49.626;9.680;2022-11-23T02:59:36;4.13;;;2.77;;
297;SDS011;133;49.626;9.680;2022-11-23T03:02:02;3.50;;;2.50;;
297;SDS011;133;49.626;9.680;2022-11-23T03:04:29;4.87;;;2.50;;
297;SDS011;133;49.626;9.680;2022-11-23T03:06:55;3.40;;;2.70;;
297;SDS011;133;49.626;9.680;2022-11-23T03:09:20;4.10;;;2.60;;
297;SDS011;133;49.626;9.680;2022-11-23T03:11:47;7.13;;;2.97;;
297;SDS011;133;49.626;9.680;2022-11-23T03:14:12;3.60;;;2.80;;
297;SDS011;133;49.626;9.680;2022-11-23T03:16:39;2.80;;;2.60;;
297;SDS011;133;49.626;9.680;2022-11-23T03:19:04;5.00;;;2.93;;
297;SDS011;133;49.626;9.680;2022-11-23T03:21:30;4.40;;;3.00;;
297;SDS011;133;49.626;9.680;2022-11-23T03:23:56;4.60;;;2.60;;
297;SDS011;133;49.626;9.680;2022-11-23T03:26:22;3.43;;;2.70;;
297;SDS011;133;49.626;9.680;2022-11-23T03:28:48;8.83;;;2.50;;
297;SDS011;133;49.626;9.680;2022-11-23T03:31:14;4.23;;;3.47;;
297;SDS011;133;49.626;9.680;2022-11-23T03:33:39;4.63;;;2.60;;
297;SDS011;133;49.626;9.680;2022-11-23T03:36:05;2.80;;;2.60;;
297;SDS011;133;49.626;9.680;2022-11-23T03:38:31;3.47;;;2.40;;
297;SDS011;133;49.626;9.680;2022-11-23T03:40:57;2.80;;;2.53;;
297;SDS011;133;49.626;9.680;2022-11-23T03:43:22;5.43;;;2.67;;
297;SDS011;133;49.626;9.680;2022-11-23T03:45:48;4.03;;;2.70;;
297;SDS011;133;49.626;9.680;2022-11-23T03:48:14;6.07;;;2.47;;
297;SDS011;133;49.626;9.680;2022-11-23T03:50:40;3.20;;;2.80;;
297;SDS011;133;49.626;9.680;2022-11-23T03:53:06;4.07;;;2.80;;
297;SDS011;133;49.626;9.680;2022-11-23T03:55:33;4.13;;;2.50;;
297;SDS011;133;49.626;9.680;2022-11-23T03:57:59;5.17;;;2.70;;
297;SDS011;133;49.626;9.680;2022-11-23T04:00:25;7.20;;;3.00;;
297;SDS011;133;49.626;9.680;2022-11-23T04:02:52;4.87;;;2.50;;
297;SDS011;133;49.626;9.680;2022-11-23T04:05:18;3.60;;;2.50;;
297;SDS011;133;49.626;9.680;2022-11-23T04:07:45;3.37;;;2.80;;
297;SDS011;133;49.626;9.680;2022-11-23T04:10:13;7.00;;;2.90;;
297;SDS011;133;49.626;9.680;2022-11-23T04:12:42;3.60;;;2.43;;
297;SDS011;133;49.626;9.680;2022-11-23T04:15:08;2.80;;;2.60;;
297;SDS011;133;49.626;9.680;2022-11-23T04:17:34;3.47;;;2.70;;
297;SDS011;133;49.626;9.680;2022-11-23T04:20:00;3.00;;;2.33;;
297;SDS011;133;49.626;9.680;2022-11-23T04:22:26;3.77;;;2.60;;
297;SDS011;133;49.626;9.680;2022-11-23T04:24:51;3.60;;;2.60;;
297;SDS011;133;49.626;9.680;2022-11-23T04:27:18;2.50;;;2.40;;
297;SDS011;133;49.626;9.680;2022-11-23T04:29:44;2.50;;;2.30;;
297;SDS011;133;49.626;9.680;2022-11-23T04:32:09;5.90;;;3.80;;
297;SDS011;133;49.626;9.680;2022-11-23T04:34:35;2.87;;;2.70;;
297;SDS011;133;49.626;9.680;2022-11-23T04:37:01;5.67;;;2.50;;
297;SDS011;133;49.626;9.680;2022-11-23T04:39:26;3.57;;;2.90;;
297;SDS011;133;49.626;9.680;2022-11-23T04:41:52;4.23;;;3.40;;
297;SDS011;133;49.626;9.680;2022-11-23T04:44:17;3.00;;;2.80;;
297;SDS011;133;49.626;9.680;2022-11-23T04:46:45;2.70;;;2.53;;
297;SDS011;133;49.626;9.680;2022-11-23T04:49:11;5.90;;;2.63;;
297;SDS011;133;49.626;9.680;2022-11-23T04:51:37;5.70;;;2.60;;
297;SDS011;133;49.626;9.680;2022-11-23T04:54:04;5.70;;;2.90;;
297;SDS011;133;49.626;9.680;2022-11-23T04:56:29;7.33;;;2.70;;
297;SDS011;133;49.626;9.680;2022-11-23T04:58:56;3.10;;;2.60;;
297;SDS011;133;49.626;9.680;2022-11-23T05:01:22;5.57;;;2.70;;
297;SDS011;133;49.626;9.680;2022-11-23T05:03:47;2.70;;;2.50;;
297;SDS011;133;49.626;9.680;2022-11-23T05:06:14;7.47;;;2.70;;
297;SDS011;133;49.626;9.680;2022-11-23T05:08:40;3.63;;;2.53;;
297;SDS011;133;49.626;9.680;2022-11-23T05:11:06;3.23;;;2.73;;
297;SDS011;133;49.626;9.680;2022-11-23T05:13:33;4.80;;;2.60;;
297;SDS011;133;49.626;9.680;2022-11-23T05:15:59;3.20;;;3.00;;
297;SDS011;133;49.626;9.680;2022-11-23T05:18:25;7.13;;;4.10;;
297;SDS011;133;49.626;9.680;2022-11-23T05:20:51;11.03;;;5.00;;
297;SDS011;133;49.626;9.680;2022-11-23T05:23:17;13.53;;;7.40;;
297;SDS011;133;49.626;9.680;2022-11-23T05:25:44;6.70;;;4.93;;
297;SDS011;133;49.626;9.680;2022-11-23T05:28:13;11.03;;;6.50;;
297;SDS011;133;49.626;9.680;2022-11-23T05:30:42;9.07;;;5.53;;
297;SDS011;133;49.626;9.680;2022-11-23T05:33:08;10.93;;;5.23;;
297;SDS011;133;49.626;9.680;2022-11-23T05:35:34;30.40;;;14.23;;
297;SDS011;133;49.626;9.680;2022-11-23T05:38:00;21.13;;;11.10;;
297;SDS011;133;49.626;9.680;2022-11-23T05:40:27;7.10;;;4.47;;
297;SDS011;133;49.626;9.680;2022-11-23T05:42:53;7.60;;;4.10;;
297;SDS011;133;49.626;9.680;2022-11-23T05:45:24;8.37;;;5.20;;
297;SDS011;133;49.626;9.680;2022-11-23T05:47:51;7.97;;;3.80;;
297;SDS011;133;49.626;9.680;2022-11-23T05:50:19;5.40;;;3.03;;
297;SDS011;133;49.626;9.680;2022-11-23T05:52:47;3.00;;;2.80;;
297;SDS011;133;49.626;9.680;2022-11-23T05:55:14;5.13;;;2.63;;
297;SDS011;133;49.626;9.680;2022-11-23T05:57:42;4.90;;;2.67;;
297;SDS011;133;49.626;9.680;2022-11-23T06:00:08;3.43;;;2.80;;
297;SDS011;133;49.626;9.680;2022-11-23T06:02:36;2.90;;;2.77;;
297;SDS011;133;49.626;9.680;2022-11-23T06:05:02;3.97;;;3.10;;
297;SDS011;133;49.626;9.680;2022-11-23T06:07:28;3.73;;;2.73;;
297;SDS011;133;49.626;9.680;2022-11-23T06:09:59;2.87;;;2.53;;
297;SDS011;133;49.626;9.680;2022-11-23T06:12:27;2.77;;;2.30;;
297;SDS011;133;49.626;9.680;2022-11-23T06:14:53;4.07;;;2.43;;
297;SDS011;133;49.626;9.680;2022-11-23T06:17:20;3.80;;;2.50;;
297;SDS011;133;49.626;9.680;2022-11-23T06:19:46;4.13;;;2.87;;
297;SDS011;133;49.626;9.680;2022-11-23T06:22:14;4.87;;;2.47;;
297;SDS011;133;49.626;9.680;2022-11-23T06:24:41;10.40;;;3.27;;
297;SDS011;133;49.626;9.680;2022-11-23T06:27:07;3.97;;;2.80;;
297;SDS011;133;49.626;9.680;2022-11-23T06:29:33;4.27;;;2.47;;
297;SDS011;133;49.626;9.680;2022-11-23T06:32:01;8.53;;;3.70;;
297;SDS011;133;49.626;9.680;2022-11-23T06:34:27;3.60;;;2.50;;
297;SDS011;133;49.626;9.680;2022-11-23T06:36:54;5.20;;;2.90;;
297;SDS011;133;49.626;9.680;2022-11-23T06:39:21;4.00;;;2.80;;
297;SDS011;133;49.626;9.680;2022-11-23T06:41:47;2.77;;;2.57;;
297;SDS011;133;49.626;9.680;2022-11-23T06:44:13;4.43;;;2.90;;
297;SDS011;133;49.626;9.680;2022-11-23T06:46:39;3.27;;;2.83;;
297;SDS011;133;49.626;9.680;2022-11-23T06:49:06;2.50;;;2.30;;
297;SDS011;133;49.626;9.680;2022-11-23T06:51:31;3.63;;;2.63;;
297;SDS011;133;49.626;9.680;2022-11-23T06:53:58;4.63;;;2.90;;
297;SDS011;133;49.626;9.680;2022-11-23T06:56:24;3.17;;;2.77;;
297;SDS011;133;49.626;9.680;2022-11-23T06:58:50;6.43;;;3.10;;
297;SDS011;133;49.626;9.680;2022-11-23T07:01:16;4.90;;;2.97;;
297;SDS011;133;49.626;9.680;2022-11-23T07:03:43;2.77;;;2.50;;
297;SDS011;133;49.626;9.680;2022-11-23T07:06:08;6.20;;;2.67;;
297;SDS011;133;49.626;9.680;2022-11-23T07:08:36;4.43;;;3.60;;
297;SDS011;133;49.626;9.680;2022-11-23T07:11:09;3.90;;;3.13;;
297;SDS011;133;49.626;9.680;2022-11-23T07:13:35;3.17;;;2.80;;
297;SDS011;133;49.626;9.680;2022-11-23T07:16:01;4.57;;;3.50;;
297;SDS011;133;49.626;9.680;2022-11-23T07:18:27;4.17;;;3.37;;
297;SDS011;133;49.626;9.680;2022-11-23T07:20:56;3.47;;;2.83;;
297;SDS011;133;49.626;9.680;2022-11-23T07:23:22;5.80;;;3.43;;
297;SDS011;133;49.626;9.680;2022-11-23T07:25:48;6.73;;;3.40;;
297;SDS011;133;49.626;9.680;2022-11-23T07:28:14;5.67;;;3.00;;
297;SDS011;133;49.626;9.680;2022-11-23T07:30:40;7.73;;;3.43;;
297;SDS011;133;49.626;9.680;2022-11-23T07:33:07;4.43;;;3.50;;
297;SDS011;133;49.626;9.680;2022-11-23T07:35:35;4.70;;;2.80;;
297;SDS011;133;49.626;9.680;2022-11-23T07:38:06;3.03;;;2.83;;
297;SDS011;133;49.626;9.680;2022-11-23T07:40:37;4.40;;;3.20;;
297;SDS011;133;49.626;9.680;2022-11-23T07:43:04;4.50;;;3.20;;
297;SDS011;133;49.626;9.680;2022-11-23T07:45:30;3.40;;;3.13;;
297;SDS011;133;49.626;9.680;2022-11-23T07:47:58;3.30;;;2.90;;
297;SDS011;133;49.626;9.680;2022-11-23T07:50:33;3.47;;;3.10;;
297;SDS011;133;49.626;9.680;2022-11-23T07:53:01;5.37;;;2.87;;
297;SDS011;133;49.626;9.680;2022-11-23T07:55:30;4.60;;;2.80;;
297;SDS011;133;49.626;9.680;2022-11-23T07:57:57;5.50;;;3.23;;
297;SDS011;133;49.626;9.680;2022-11-23T08:00:24;3.77;;;2.90;;
297;SDS011;133;49.626;9.680;2022-11-23T08:02:55;4.20;;;2.87;;
297;SDS011;133;49.626;9.680;2022-11-23T08:05:22;3.67;;;2.87;;
297;SDS011;133;49.626;9.680;2022-11-23T08:07:48;4.53;;;3.10;;
297;SDS011;133;49.626;9.680;2022-11-23T08:10:15;3.73;;;2.87;;
297;SDS011;133;49.626;9.680;2022-11-23T08:12:41;5.37;;;3.10;;
297;SDS011;133;49.626;9.680;2022-11-23T08:15:07;2.93;;;2.77;;
297;SDS011;133;49.626;9.680;2022-11-23T08:17:33;5.70;;;3.23;;
297;SDS011;133;49.626;9.680;2022-11-23T08:20:00;4.53;;;2.90;;
297;SDS011;133;49.626;9.680;2022-11-23T08:22:27;4.20;;;2.70;;
297;SDS011;133;49.626;9.680;2022-11-23T08:24:53;3.23;;;3.00;;
297;SDS011;133;49.626;9.680;2022-11-23T08:27:21;6.40;;;3.30;;
297;SDS011;133;49.626;9.680;2022-11-23T08:29:46;5.20;;;3.23;;
297;SDS011;133;49.626;9.680;2022-11-23T08:32:12;5.43;;;3.37;;
297;SDS011;133;49.626;9.680;2022-11-23T08:34:40;5.33;;;4.07;;
297;SDS011;133;49.626;9.680;2022-11-23T08:37:08;3.90;;;3.23;;
297;SDS011;133;49.626;9.680;2022-11-23T08:39:33;4.80;;;3.20;;
297;SDS011;133;49.626;9.680;2022-11-23T08:42:00;6.00;;;3.87;;
297;SDS011;133;49.626;9.680;2022-11-23T08:44:27;7.77;;;4.10;;
297;SDS011;133;49.626;9.680;2022-11-23T08:46:53;7.00;;;3.37;;
297;SDS011;133;49.626;9.680;2022-11-23T08:49:19;4.53;;;3.20;;
297;SDS011;133;49.626;9.680;2022-11-23T08:51:44;4.40;;;3.83;;
297;SDS011;133;49.626;9.680;2022-11-23T08:54:12;6.60;;;3.30;;
297;SDS011;133;49.626;9.680;2022-11-23T08:56:37;4.47;;;3.10;;
297;SDS011;133;49.626;9.680;2022-11-23T08:59:04;6.03;;;3.30;;
297;SDS011;133;49.626;9.680;2022-11-23T09:01:30;6.20;;;3.20;;
297;SDS011;133;49.626;9.680;2022-11-23T09:03:55;8.87;;;3.53;;
297;SDS011;133;49.626;9.680;2022-11-23T09:06:24;6.13;;;3.30;;
297;SDS011;133;49.626;9.680;2022-11-23T09:08:53;5.63;;;3.13;;
297;SDS011;133;49.626;9.680;2022-11-23T09:11:19;4.67;;;3.20;;
297;SDS011;133;49.626;9.680;2022-11-23T09:13:45;6.57;;;3.50;;
297;SDS011;133;49.626;9.680;2022-11-23T09:16:10;5.23;;;2.97;;
297;SDS011;133;49.626;9.680;2022-11-23T09:18:36;8.80;;;3.40;;
297;SDS011;133;49.626;9.680;2022-11-23T09:21:03;5.67;;;3.20;;
297;SDS011;133;49.626;9.680;2022-11-23T09:23:29;4.80;;;3.37;;
297;SDS011;133;49.626;9.680;2022-11-23T09:25:59;6.27;;;3.60;;
297;SDS011;133;49.626;9.680;2022-11-23T09:28:25;3.53;;;2.73;;
297;SDS011;133;49.626;9.680;2022-11-23T09:30:52;6.73;;;3.50;;
297;SDS011;133;49.626;9.680;2022-11-23T09:33:19;4.90;;;3.10;;
297;SDS011;133;49.626;9.680;2022-11-23T09:35:47;6.50;;;3.33;;
297;SDS011;133;49.626;9.680;2022-11-23T09:38:25;8.53;;;3.60;;
297;SDS011;133;49.626;9.680;2022-11-23T09:41:36;7.80;;;3.63;;
297;SDS011;133;49.626;9.680;2022-11-23T09:43:58;4.17;;;3.10;;
297;SDS011;133;49.626;9.680;2022-11-23T09:46:47;8.80;;;3.40;;
297;SDS011;133;49.626;9.680;2022-11-23T09:52:24;7.07;;;4.30;;
297;SDS011;133;49.626;9.680;2022-11-23T09:54:51;4.30;;;3.10;;
297;SDS011;133;49.626;9.680;2022-11-23T09:57:22;8.20;;;3.57;;
297;SDS011;133;49.626;9.680;2022-11-23T09:59:56;4.03;;;3.53;;
297;SDS011;133;49.626;9.680;2022-11-23T10:02:29;3.97;;;3.00;;
297;SDS011;133;49.626;9.680;2022-11-23T10:05:00;4.00;;;3.20;;
297;SDS011;133;49.626;9.680;2022-11-23T10:10:25;4.83;;;3.20;;
297;SDS011;133;49.626;9.680;2022-11-23T10:13:23;3.27;;;2.90;;
297;SDS011;133;49.626;9.680;2022-11-23T10:21:40;4.80;;;3.07;;
297;SDS011;133;49.626;9.680;2022-11-23T10:24:31;3.40;;;2.23;;
297;SDS011;133;49.626;9.680;2022-11-23T10:27:05;5.60;;;3.27;;
297;SDS011;133;49.626;9.680;2022-11-23T10:29:40;3.80;;;2.80;;
297;SDS011;133;49.626;9.680;2022-11-23T10:35:10;5.73;;;2.97;;
297;SDS011;133;49.626;9.680;2022-11-23T10:37:41;5.67;;;3.37;;
297;SDS011;133;49.626;9.680;2022-11-23T10:40:23;3.90;;;2.80;;
297;SDS011;133;49.626;9.680;2022-11-23T10:43:00;6.10;;;2.80;;
297;SDS011;133;49.626;9.680;2022-11-23T10:45:38;5.33;;;2.93;;
297;SDS011;133;49.626;9.680;2022-11-23T10:48:07;6.23;;;3.03;;
297;SDS011;133;49.626;9.680;2022-11-23T10:50:35;4.83;;;2.90;;
297;SDS011;133;49.626;9.680;2022-11-23T10:55:30;5.37;;;3.23;;
297;SDS011;133;49.626;9.680;2022-11-23T10:57:58;6.53;;;3.00;;
297;SDS011;133;49.626;9.680;2022-11-23T11:00:25;5.40;;;2.87;;
297;SDS011;133;49.626;9.680;2022-11-23T11:02:56;7.57;;;3.43;;
297;SDS011;133;49.626;9.680;2022-11-23T11:05:27;4.07;;;3.00;;
297;SDS011;133;49.626;9.680;2022-11-23T11:08:12;5.93;;;4.07;;
297;SDS011;133;49.626;9.680;2022-11-23T11:10:43;3.57;;;2.60;;
297;SDS011;133;49.626;9.680;2022-11-23T11:13:59;4.13;;;2.70;;
297;SDS011;133;49.626;9.680;2022-11-23T11:18:55;6.17;;;2.63;;
297;SDS011;133;49.626;9.680;2022-11-23T11:21:22;5.43;;;2.80;;
297;SDS011;133;49.626;9.680;2022-11-23T11:26:25;6.00;;;2.37;;
297;SDS011;133;49.626;9.680;2022-11-23T11:28:59;4.33;;;2.47;;
297;SDS011;133;49.626;9.680;2022-11-23T11:34:18;8.43;;;2.53;;
297;SDS011;133;49.626;9.680;2022-11-23T11:36:53;5.27;;;2.60;;
297;SDS011;133;49.626;9.680;2022-11-23T11:42:14;4.23;;;2.40;;
297;SDS011;133;49.626;9.680;2022-11-23T11:44:43;5.17;;;2.60;;
297;SDS011;133;49.626;9.680;2022-11-23T11:47:23;6.53;;;2.77;;
297;SDS011;133;49.626;9.680;2022-11-23T11:49:56;3.30;;;2.30;;
297;SDS011;133;49.626;9.680;2022-11-23T11:52:29;3.00;;;2.77;;
297;SDS011;133;49.626;9.680;2022-11-23T11:55:11;3.53;;;2.40;;
297;SDS011;133;49.626;9.680;2022-11-23T11:57:48;3.93;;;2.60;;
297;SDS011;133;49.626;9.680;2022-11-23T12:00:19;12.90;;;3.03;;
297;SDS011;133;49.626;9.680;2022-11-23T12:05:46;4.03;;;2.37;;
297;SDS011;133;49.626;9.680;2022-11-23T12:13:17;4.57;;;2.47;;
297;SDS011;133;49.626;9.680;2022-11-23T12:15:49;3.20;;;2.40;;
297;SDS011;133;49.626;9.680;2022-11-23T12:30:23;3.97;;;2.70;;
297;SDS011;133;49.626;9.680;2022-11-23T12:33:30;3.93;;;2.57;;
297;SDS011;133;49.626;9.680;2022-11-23T12:39:00;2.37;;;2.17;;
297;SDS011;133;49.626;9.680;2022-11-23T12:41:38;5.37;;;2.40;;
297;SDS011;133;49.626;9.680;2022-11-23T12:58:27;5.23;;;2.30;;
297;SDS011;133;49.626;9.680;2022-11-23T13:01:03;3.20;;;1.97;;
297;SDS011;133;49.626;9.680;2022-11-23T13:20:21;4.93;;;2.40;;
297;SDS011;133;49.626;9.680;2022-11-23T13:23:08;4.60;;;1.90;;
297;SDS011;133;49.626;9.680;2022-11-23T13:25:34;3.63;;;2.30;;
297;SDS011;133;49.626;9.680;2022-11-23T13:28:11;3.30;;;2.00;;
297;SDS011;133;49.626;9.680;2022-11-23T13:33:56;4.37;;;2.57;;
297;SDS011;133;49.626;9.680;2022-11-23T13:38:58;2.50;;;1.90;;
297;SDS011;133;49.626;9.680;2022-11-23T13:43:56;3.33;;;1.90;;
297;SDS011;133;49.626;9.680;2022-11-23T13:46:23;3.33;;;2.00;;
297;SDS011;133;49.626;9.680;2022-11-23T13:48:59;7.53;;;2.33;;
297;SDS011;133;49.626;9.680;2022-11-23T13:51:26;4.60;;;2.30;;
297;SDS011;133;49.626;9.680;2022-11-23T13:54:00;3.67;;;2.03;;
297;SDS011;133;49.626;9.680;2022-11-23T13:56:38;4.63;;;2.23;;
297;SDS011;133;49.626;9.680;2022-11-23T14:02:21;4.37;;;2.00;;
297;SDS011;133;49.626;9.680;2022-11-23T14:04:49;5.77;;;2.33;;
297;SDS011;133;49.626;9.680;2022-11-23T14:10:20;4.17;;;2.17;;
297;SDS011;133;49.626;9.680;2022-11-23T14:12:57;4.60;;;2.27;;
297;SDS011;133;49.626;9.680;2022-11-23T14:15:44;4.70;;;2.07;;
297;SDS011;133;49.626;9.680;2022-11-23T14:35:24;5.67;;;2.17;;
297;SDS011;133;49.626;9.680;2022-11-23T14:40:44;7.97;;;2.30;;
297;SDS011;133;49.626;9.680;2022-11-23T14:43:21;2.90;;;2.10;;
297;SDS011;133;49.626;9.680;2022-11-23T14:45:48;5.93;;;2.30;;
297;SDS011;133;49.626;9.680;2022-11-23T14:48:33;3.63;;;2.10;;
297;SDS011;133;49.626;9.680;2022-11-23T14:51:03;7.30;;;2.20;;
297;SDS011;133;49.626;9.680;2022-11-23T14:53:38;6.10;;;2.00;;
297;SDS011;133;49.626;9.680;2022-11-23T14:59:09;2.17;;;1.97;;
297;SDS011;133;49.626;9.680;2022-11-23T15:01:46;4.10;;;1.73;;
297;SDS011;133;49.626;9.680;2022-11-23T15:07:25;5.13;;;2.77;;
297;SDS011;133;49.626;9.680;2022-11-23T15:10:01;3.70;;;2.10;;
297;SDS011;133;49.626;9.680;2022-11-23T15:12:41;4.20;;;2.30;;
297;SDS011;133;49.626;9.680;2022-11-23T15:15:16;3.10;;;2.03;;
297;SDS011;133;49.626;9.680;2022-11-23T15:17:54;3.00;;;2.00;;
297;SDS011;133;49.626;9.680;2022-11-23T15:20:31;3.57;;;1.87;;
297;SDS011;133;49.626;9.680;2022-11-23T15:23:01;5.83;;;2.30;;
297;SDS011;133;49.626;9.680;2022-11-23T15:25:28;7.40;;;2.17;;
297;SDS011;133;49.626;9.680;2022-11-23T15:27:55;3.27;;;1.90;;
297;SDS011;133;49.626;9.680;2022-11-23T15:30:25;6.03;;;2.07;;
297;SDS011;133;49.626;9.680;2022-11-23T15:32:54;3.97;;;2.10;;
297;SDS011;133;49.626;9.680;2022-11-23T15:35:33;2.43;;;1.90;;
297;SDS011;133;49.626;9.680;2022-11-23T15:38:01;2.33;;;2.10;;
297;SDS011;133;49.626;9.680;2022-11-23T15:40:31;4.13;;;2.20;;
297;SDS011;133;49.626;9.680;2022-11-23T15:43:00;4.57;;;2.17;;
297;SDS011;133;49.626;9.680;2022-11-23T15:48:10;3.80;;;1.90;;
297;SDS011;133;49.626;9.680;2022-11-23T15:51:25;3.80;;;1.97;;
297;SDS011;133;49.626;9.680;2022-11-23T15:53:49;3.20;;;1.97;;
297;SDS011;133;49.626;9.680;2022-11-23T15:56:29;4.30;;;2.30;;
297;SDS011;133;49.626;9.680;2022-11-23T15:59:17;8.43;;;2.33;;
297;SDS011;133;49.626;9.680;2022-11-23T16:02:04;4.63;;;1.93;;
297;SDS011;133;49.626;9.680;2022-11-23T16:04:39;3.07;;;1.93;;
297;SDS011;133;49.626;9.680;2022-11-23T16:07:19;2.83;;;1.80;;
297;SDS011;133;49.626;9.680;2022-11-23T16:09:49;2.03;;;1.90;;
297;SDS011;133;49.626;9.680;2022-11-23T16:12:31;1.90;;;1.80;;
297;SDS011;133;49.626;9.680;2022-11-23T16:18:20;1.97;;;1.77;;
297;SDS011;133;49.626;9.680;2022-11-23T16:20:54;2.53;;;2.00;;
297;SDS011;133;49.626;9.680;2022-11-23T16:23:34;2.57;;;1.93;;
297;SDS011;133;49.626;9.680;2022-11-23T16:26:10;4.90;;;1.80;;
297;SDS011;133;49.626;9.680;2022-11-23T16:28:46;3.97;;;1.87;;
297;SDS011;133;49.626;9.680;2022-11-23T16:34:08;2.17;;;1.97;;
297;SDS011;133;49.626;9.680;2022-11-23T16:36:36;2.70;;;1.80;;
297;SDS011;133;49.626;9.680;2022-11-23T16:39:03;3.03;;;2.00;;
297;SDS011;133;49.626;9.680;2022-11-23T16:41:29;2.63;;;1.80;;
297;SDS011;133;49.626;9.680;2022-11-23T16:43:56;2.30;;;1.80;;
297;SDS011;133;49.626;9.680;2022-11-23T16:46:23;5.63;;;2.20;;
297;SDS011;133;49.626;9.680;2022-11-23T16:48:50;2.00;;;1.90;;
297;SDS011;133;49.626;9.680;2022-11-23T16:51:28;2.70;;;2.00;;
297;SDS011;133;49.626;9.680;2022-11-23T16:53:56;2.23;;;2.03;;
297;SDS011;133;49.626;9.680;2022-11-23T16:56:23;3.90;;;2.27;;
297;SDS011;133;49.626;9.680;2022-11-23T16:58:51;3.30;;;2.33;;
297;SDS011;133;49.626;9.680;2022-11-23T17:01:25;2.70;;;1.97;;
297;SDS011;133;49.626;9.680;2022-11-23T17:03:53;3.63;;;2.00;;
297;SDS011;133;49.626;9.680;2022-11-23T17:06:20;3.20;;;2.13;;
297;SDS011;133;49.626;9.680;2022-11-23T17:08:48;4.23;;;2.33;;
297;SDS011;133;49.626;9.680;2022-11-23T17:11:16;5.90;;;2.10;;
297;SDS011;133;49.626;9.680;2022-11-23T17:13:45;3.30;;;2.40;;
297;SDS011;133;49.626;9.680;2022-11-23T17:16:17;2.17;;;2.00;;
297;SDS011;133;49.626;9.680;2022-11-23T17:18:46;2.50;;;1.90;;
297;SDS011;133;49.626;9.680;2022-11-23T17:21:12;2.93;;;2.30;;
297;SDS011;133;49.626;9.680;2022-11-23T17:23:38;2.00;;;1.90;;
297;SDS011;133;49.626;9.680;2022-11-23T17:26:29;1.93;;;1.90;;
297;SDS011;133;49.626;9.680;2022-11-23T17:28:59;2.70;;;2.33;;
297;SDS011;133;49.626;9.680;2022-11-23T17:31:29;8.10;;;4.23;;
297;SDS011;133;49.626;9.680;2022-11-23T17:33:55;6.67;;;3.67;;
297;SDS011;133;49.626;9.680;2022-11-23T17:36:22;23.43;;;12.17;;
297;SDS011;133;49.626;9.680;2022-11-23T17:38:53;5.37;;;3.97;;
297;SDS011;133;49.626;9.680;2022-11-23T17:41:19;5.23;;;4.67;;
297;SDS011;133;49.626;9.680;2022-11-23T17:43:44;24.90;;;13.40;;
297;SDS011;133;49.626;9.680;2022-11-23T17:46:18;41.60;;;21.30;;
297;SDS011;133;49.626;9.680;2022-11-23T17:48:55;29.67;;;17.10;;
297;SDS011;133;49.626;9.680;2022-11-23T17:51:22;9.20;;;6.23;;
297;SDS011;133;49.626;9.680;2022-11-23T17:53:49;6.50;;;4.53;;
297;SDS011;133;49.626;9.680;2022-11-23T17:56:17;5.40;;;3.90;;
297;SDS011;133;49.626;9.680;2022-11-23T17:58:48;6.03;;;3.40;;
297;SDS011;133;49.626;9.680;2022-11-23T18:01:16;4.97;;;3.90;;
297;SDS011;133;49.626;9.680;2022-11-23T18:03:43;6.57;;;4.57;;
297;SDS011;133;49.626;9.680;2022-11-23T18:06:18;3.70;;;3.53;;
297;SDS011;133;49.626;9.680;2022-11-23T18:08:47;10.03;;;5.00;;
297;SDS011;133;49.626;9.680;2022-11-23T18:11:15;6.23;;;4.00;;
297;SDS011;133;49.626;9.680;2022-11-23T18:13:42;5.50;;;4.60;;
297;SDS011;133;49.626;9.680;2022-11-23T18:16:10;20.23;;;6.70;;
297;SDS011;133;49.626;9.680;2022-11-23T18:18:36;8.63;;;6.43;;
297;SDS011;133;49.626;9.680;2022-11-23T18:21:03;21.00;;;11.50;;
297;SDS011;133;49.626;9.680;2022-11-23T18:23:32;41.13;;;21.53;;